Time;durP1;ratioP1;P1;durP2;ratioP2;P2;SDS_P1;SDS_P2;PMS_P1;PMS_P2;Temp;Humidity;BMP_temperature;BMP_pressure;BME280_temperature;BME280_humidity;BME280_pressure;Samples;Min_cycle;Max_cycle;Signal;HPM_P1;HPM_P2
2022/07/16 00:02:58;;;;;;;17.20;5.88;;;;;;;10.19;100.00;101980.75;5041507;28;20068;-78
2022/07/16 00:05:24;;;;;;;16.63;6.07;;;;;;;10.03;100.00;101970.59;5040173;28;20521;-77
2022/07/16 00:07:50;;;;;;;17.75;5.47;;;;;;;10.09;100.00;101978.09;5040751;28;20510;-77
2022/07/16 00:10:15;;;;;;;16.13;5.53;;;;;;;10.02;100.00;101959.00;5042999;28;20055;-78
2022/07/16 00:12:41;;;;;;;15.27;5.65;;;;;;;9.96;100.00;101959.56;5035271;28;20028;-77
2022/07/16 00:15:07;;;;;;;15.73;5.38;;;;;;;10.01;100.00;101968.06;5033092;28;20040;-77
2022/07/16 00:17:33;;;;;;;14.55;5.18;;;;;;;10.00;100.00;101966.38;5016993;28;20039;-79
2022/07/16 00:19:59;;;;;;;12.73;4.68;;;;;;;9.91;100.00;101975.28;5024123;28;20032;-76
2022/07/16 00:22:24;;;;;;;13.07;4.93;;;;;;;9.84;100.00;101969.63;5033420;28;20028;-77
2022/07/16 00:24:50;;;;;;;13.35;5.43;;;;;;;9.75;100.00;101973.16;5039658;28;20024;-77
2022/07/16 00:27:15;;;;;;;10.77;4.82;;;;;;;9.66;100.00;101964.09;5047119;28;20039;-79
2022/07/16 00:29:41;;;;;;;10.52;4.55;;;;;;;9.63;100.00;101956.34;5045004;28;20036;-77
2022/07/16 00:32:07;;;;;;;13.18;5.43;;;;;;;9.77;100.00;101967.66;5065625;28;20060;-78
2022/07/16 00:34:33;;;;;;;13.35;4.50;;;;;;;9.82;100.00;101968.06;5012954;28;20040;-78
2022/07/16 00:36:58;;;;;;;8.88;4.20;;;;;;;9.75;100.00;101969.63;5050830;28;20060;-77
2022/07/16 00:39:24;;;;;;;11.32;4.82;;;;;;;9.79;100.00;101968.31;5049129;28;20056;-77
2022/07/16 00:41:50;;;;;;;9.38;4.15;;;;;;;9.75;100.00;101948.13;5062306;28;20041;-77
2022/07/16 00:44:17;;;;;;;8.82;4.78;;;;;;;9.74;100.00;101954.47;5033803;28;20029;-77
2022/07/16 00:46:45;;;;;;;11.65;4.93;;;;;;;9.75;100.00;101962.41;5029414;28;20029;-77
2022/07/16 00:49:11;;;;;;;10.45;4.65;;;;;;;9.71;100.00;101952.91;5048308;28;20044;-79
2022/07/16 00:51:42;;;;;;;8.52;4.15;;;;;;;9.67;100.00;101955.03;5048789;28;20037;-78
2022/07/16 00:54:08;;;;;;;11.02;4.25;;;;;;;9.62;100.00;101948.41;5037556;28;20037;-78
2022/07/16 00:56:33;;;;;;;8.70;3.95;;;;;;;9.70;100.00;101956.59;5012674;28;20045;-78
2022/07/16 00:59:01;;;;;;;10.13;4.78;;;;;;;9.65;100.00;101951.66;5039197;28;20064;-78
2022/07/16 01:01:27;;;;;;;8.35;4.18;;;;;;;9.49;100.00;101955.88;5044261;28;20604;-77
2022/07/16 01:03:53;;;;;;;10.82;4.30;;;;;;;9.42;100.00;101959.13;5027962;28;20064;-77
2022/07/16 01:06:19;;;;;;;7.55;4.25;;;;;;;9.28;100.00;101953.31;5031656;28;20115;-77
2022/07/16 01:08:46;;;;;;;8.43;4.13;;;;;;;9.19;100.00;101957.66;5031644;28;20106;-77
2022/07/16 01:11:14;;;;;;;8.48;4.03;;;;;;;9.22;100.00;101955.53;5031723;28;20111;-77
2022/07/16 01:13:42;;;;;;;7.60;3.90;;;;;;;9.27;100.00;101935.50;5043087;28;20395;-78
2022/07/16 01:16:08;;;;;;;6.65;3.53;;;;;;;9.25;100.00;101932.94;5030515;28;20039;-77
2022/07/16 01:18:35;;;;;;;6.80;4.20;;;;;;;9.24;100.00;101948.22;5050734;28;20474;-78
2022/07/16 01:21:01;;;;;;;10.20;3.85;;;;;;;9.10;100.00;101935.16;5044559;28;20116;-78
2022/07/16 01:23:30;;;;;;;9.38;3.75;;;;;;;9.05;100.00;101928.53;5026781;28;20115;-77
2022/07/16 01:25:56;;;;;;;6.70;3.15;;;;;;;9.03;100.00;101940.25;5013151;28;20037;-75
2022/07/16 01:28:21;;;;;;;9.00;3.75;;;;;;;8.96;100.00;101932.88;5031504;28;20098;-78
2022/07/16 01:30:48;;;;;;;9.55;3.78;;;;;;;8.86;100.00;101930.16;5042725;28;20024;-79
2022/07/16 01:33:30;;;;;;;6.25;3.45;;;;;;;8.70;100.00;101906.53;5062931;28;20032;-77
2022/07/16 01:36:05;;;;;;;9.23;3.92;;;;;;;8.77;100.00;101929.16;5059708;28;20025;-76
2022/07/16 01:38:31;;;;;;;7.28;3.60;;;;;;;8.62;100.00;101919.75;5049668;28;20028;-76
2022/07/16 01:40:57;;;;;;;6.70;3.85;;;;;;;8.49;100.00;101903.06;5043821;28;20387;-78
2022/07/16 01:43:25;;;;;;;6.70;3.20;;;;;;;8.64;100.00;101919.63;5048903;28;20055;-78
2022/07/16 01:45:52;;;;;;;8.13;3.38;;;;;;;8.71;100.00;101923.50;5038052;28;20037;-77
2022/07/16 01:48:18;;;;;;;6.35;3.70;;;;;;;8.69;100.00;101914.72;5060381;28;20112;-77
2022/07/16 01:50:44;;;;;;;7.70;3.80;;;;;;;8.74;100.00;101913.34;5034480;28;20029;-77
2022/07/16 01:53:11;;;;;;;8.07;3.60;;;;;;;8.83;100.00;101908.13;5043758;28;20041;-76
2022/07/16 01:55:37;;;;;;;7.28;3.80;;;;;;;8.86;100.00;101914.06;5048949;28;20033;-76
2022/07/16 01:58:04;;;;;;;5.75;3.33;;;;;;;8.75;100.00;101927.59;5030524;28;20098;-76
2022/07/16 02:00:30;;;;;;;8.02;3.30;;;;;;;8.59;100.00;101920.03;5026331;28;20040;-78
2022/07/16 02:02:56;;;;;;;5.70;2.88;;;;;;;8.42;100.00;101912.63;5041954;28;20434;-77
2022/07/16 02:05:22;;;;;;;5.47;3.20;;;;;;;8.40;100.00;101920.78;5047280;28;20028;-76
2022/07/16 02:07:48;;;;;;;4.70;2.63;;;;;;;8.34;100.00;101916.78;5037981;28;20028;-78
2022/07/16 02:10:13;;;;;;;6.78;3.40;;;;;;;8.31;100.00;101909.03;5031381;28;20497;-76
2022/07/16 02:12:39;;;;;;;6.20;3.17;;;;;;;8.27;100.00;101907.56;5033915;28;20032;-77
2022/07/16 02:15:05;;;;;;;6.57;3.38;;;;;;;8.29;100.00;101908.31;5016849;28;20036;-76
2022/07/16 02:17:31;;;;;;;6.05;2.67;;;;;;;8.20;100.00;101903.72;5031364;28;20118;-76
2022/07/16 02:19:57;;;;;;;6.43;3.40;;;;;;;8.20;100.00;101924.31;5049985;28;20086;-76
2022/07/16 02:22:23;;;;;;;4.57;2.75;;;;;;;8.12;100.00;101917.81;5012896;28;20505;-76
2022/07/16 02:24:48;;;;;;;6.07;3.35;;;;;;;8.10;100.00;101911.72;5013644;28;20044;-77
2022/07/16 02:27:14;;;;;;;7.03;3.03;;;;;;;7.97;100.00;101897.69;5015179;28;20052;-78
2022/07/16 02:29:39;;;;;;;5.28;3.00;;;;;;;7.90;100.00;101902.69;5012944;28;20033;-76
2022/07/16 02:32:05;;;;;;;6.97;3.17;;;;;;;7.92;100.00;101911.44;5050921;28;20033;-76
2022/07/16 02:34:31;;;;;;;6.82;3.28;;;;;;;7.75;100.00;101898.63;5041944;28;20081;-77
2022/07/16 02:36:59;;;;;;;7.38;3.20;;;;;;;7.87;100.00;101924.38;5044635;28;20040;-77
2022/07/16 02:39:25;;;;;;;8.15;3.75;;;;;;;7.83;100.00;101922.09;5037078;28;20115;-77
2022/07/16 02:41:50;;;;;;;6.82;3.88;;;;;;;7.77;100.00;101917.25;5053353;28;20611;-77
2022/07/16 02:44:16;;;;;;;6.32;3.65;;;;;;;7.87;100.00;101928.88;5036064;28;20790;-76
2022/07/16 02:46:42;;;;;;;5.28;3.03;;;;;;;7.90;100.00;101924.13;5019325;28;20032;-77
2022/07/16 02:49:07;;;;;;;7.05;3.67;;;;;;;8.02;100.00;101926.72;5048322;28;20223;-76
2022/07/16 02:51:33;;;;;;;6.75;2.95;;;;;;;8.07;100.00;101925.38;5048626;28;20037;-77
2022/07/16 02:53:59;;;;;;;5.88;3.10;;;;;;;8.12;100.00;101922.28;5057871;28;20036;-76
2022/07/16 02:56:24;;;;;;;4.97;3.10;;;;;;;8.19;100.00;101915.44;5030783;28;20131;-76
2022/07/16 02:58:50;;;;;;;6.32;3.25;;;;;;;8.15;100.00;101898.78;5046505;28;20064;-76
2022/07/16 03:01:16;;;;;;;7.45;3.60;;;;;;;8.27;100.00;101906.72;5034446;28;20048;-76
2022/07/16 03:03:41;;;;;;;7.72;3.35;;;;;;;8.07;100.00;101893.22;5039913;28;20098;-77
2022/07/16 03:06:07;;;;;;;6.60;3.33;;;;;;;8.19;100.00;101904.72;5057580;28;20048;-76
2022/07/16 03:08:33;;;;;;;6.00;3.15;;;;;;;8.22;100.00;101901.75;5027247;28;20107;-76
2022/07/16 03:10:59;;;;;;;5.65;3.13;;;;;;;8.27;100.00;101909.41;5039498;28;20051;-77
2022/07/16 03:13:24;;;;;;;6.00;3.28;;;;;;;8.24;100.00;101909.69;5051887;28;20119;-76
2022/07/16 03:15:50;;;;;;;4.78;2.95;;;;;;;8.16;100.00;101910.34;5052441;28;20136;-77
2022/07/16 03:18:16;;;;;;;5.38;3.40;;;;;;;8.20;100.00;101914.44;5018564;28;20056;-77
2022/07/16 03:20:41;;;;;;;5.95;3.17;;;;;;;8.12;100.00;101911.56;5034802;28;20371;-76
2022/07/16 03:23:07;;;;;;;7.55;3.20;;;;;;;8.01;100.00;101922.34;5034170;28;20037;-77
2022/07/16 03:25:33;;;;;;;5.95;3.60;;;;;;;8.01;100.00;101920.53;5010919;28;20526;-78
2022/07/16 03:27:58;;;;;;;9.40;3.75;;;;;;;8.03;100.00;101918.56;5051264;28;20033;-77
2022/07/16 03:30:24;;;;;;;8.15;4.15;;;;;;;8.10;100.00;101916.22;5034196;28;20032;-76
2022/07/16 03:32:50;;;;;;;12.32;4.43;;;;;;;8.13;100.00;101910.59;5018734;28;20043;-77
2022/07/16 03:35:15;;;;;;;8.15;3.90;;;;;;;8.17;100.00;101911.19;5019027;28;20040;-76
2022/07/16 03:40:26;;;;;;;9.85;4.50;;;;;;;8.15;100.00;101914.00;5043851;28;20520;-77
2022/07/16 03:42:52;;;;;;;9.45;4.05;;;;;;;8.02;100.00;101883.88;5016581;28;20040;-77
2022/07/16 03:45:17;;;;;;;8.40;3.78;;;;;;;8.04;100.00;101901.50;5030101;28;20064;-76
2022/07/16 03:47:43;;;;;;;9.85;3.38;;;;;;;8.05;100.00;101905.06;5048830;28;20025;-76
2022/07/16 03:50:09;;;;;;;10.50;3.70;;;;;;;8.04;100.00;101897.97;5028567;28;20035;-76
2022/07/16 03:52:34;;;;;;;7.80;3.45;;;;;;;8.01;100.00;101895.56;5021292;28;20367;-76
2022/07/16 03:55:00;;;;;;;10.80;4.15;;;;;;;8.02;100.00;101894.59;5032662;28;20497;-76
2022/07/16 03:57:26;;;;;;;8.93;4.43;;;;;;;7.98;100.00;101887.81;5066146;28;20091;-76
2022/07/16 03:59:51;;;;;;;10.40;4.22;;;;;;;7.96;100.00;101889.75;5051520;28;21052;-77
2022/07/16 04:02:17;;;;;;;10.93;4.22;;;;;;;8.04;100.00;101895.31;5015235;28;20040;-77
2022/07/16 04:04:43;;;;;;;16.80;4.65;;;;;;;8.07;100.00;101887.00;5048981;28;20490;-76
2022/07/16 04:07:09;;;;;;;14.00;4.32;;;;;;;8.12;100.00;101891.00;5067035;28;20462;-76
2022/07/16 04:09:34;;;;;;;15.20;3.75;;;;;;;8.20;100.00;101884.97;5025901;28;20398;-77
2022/07/16 04:12:00;;;;;;;12.25;4.82;;;;;;;8.27;100.00;101888.81;5034382;28;20564;-78
2022/07/16 04:14:26;;;;;;;11.15;4.32;;;;;;;8.34;100.00;101890.00;5042949;28;20075;-77
2022/07/16 04:16:51;;;;;;;15.43;5.00;;;;;;;8.33;100.00;101877.56;5039721;28;20115;-77
2022/07/16 04:19:17;;;;;;;11.38;4.03;;;;;;;8.26;100.00;101871.06;5066485;28;20039;-76
2022/07/16 04:21:43;;;;;;;12.13;4.43;;;;;;;8.22;100.00;101879.47;5034524;28;20063;-77
2022/07/16 04:24:08;;;;;;;14.45;4.97;;;;;;;8.02;100.00;101871.34;5032686;28;20139;-77
2022/07/16 04:26:34;;;;;;;8.60;4.15;;;;;;;8.14;100.00;101883.66;5067507;28;20208;-76
2022/07/16 04:29:00;;;;;;;12.95;4.28;;;;;;;8.03;100.00;101864.16;5050093;28;20432;-77
2022/07/16 04:31:25;;;;;;;13.88;4.38;;;;;;;7.91;100.00;101848.16;5040711;28;20094;-76
2022/07/16 04:33:51;;;;;;;9.98;4.35;;;;;;;8.13;100.00;101876.63;5034013;28;20490;-77
2022/07/16 04:36:17;;;;;;;14.40;4.75;;;;;;;8.06;100.00;101872.75;5029998;28;20033;-76
2022/07/16 04:38:42;;;;;;;11.73;4.47;;;;;;;8.00;100.00;101861.75;5015399;28;20101;-78
2022/07/16 04:41:08;;;;;;;15.60;4.53;;;;;;;8.03;100.00;101866.84;5030007;28;20032;-77
2022/07/16 04:43:33;;;;;;;10.18;4.35;;;;;;;8.09;100.00;101874.34;5056631;28;20075;-77
2022/07/16 04:45:59;;;;;;;13.00;3.97;;;;;;;8.09;100.00;101866.28;5010425;28;20356;-78
2022/07/16 04:48:25;;;;;;;8.98;3.70;;;;;;;8.14;100.00;101866.75;5051193;28;20033;-78
2022/07/16 04:50:50;;;;;;;9.80;3.95;;;;;;;8.11;100.00;101864.34;5043166;28;20086;-78
2022/07/16 04:53:16;;;;;;;9.25;3.83;;;;;;;8.14;100.00;101862.22;5012800;28;20037;-78
2022/07/16 04:55:42;;;;;;;9.68;3.95;;;;;;;8.04;100.00;101845.25;5047807;28;20127;-79
2022/07/16 04:58:08;;;;;;;13.45;4.47;;;;;;;8.17;100.00;101861.13;5011624;28;20328;-76
2022/07/16 05:00:34;;;;;;;8.60;3.53;;;;;;;8.13;100.00;101860.56;5048372;28;20036;-77
2022/07/16 05:02:59;;;;;;;12.25;3.78;;;;;;;8.22;100.00;101861.56;5016260;28;20032;-76
2022/07/16 05:05:27;;;;;;;8.55;3.75;;;;;;;8.28;100.00;101858.38;5026446;28;20406;-76
2022/07/16 05:07:53;;;;;;;13.75;3.45;;;;;;;8.32;100.00;101858.94;5019040;28;20056;-77
2022/07/16 05:10:19;;;;;;;9.65;3.85;;;;;;;8.40;100.00;101861.00;5045647;28;20067;-77
2022/07/16 05:12:45;;;;;;;10.30;3.70;;;;;;;8.46;100.00;101863.97;5026780;28;20367;-77
2022/07/16 05:15:10;;;;;;;8.70;4.43;;;;;;;8.51;100.00;101859.06;5044598;28;20111;-78
2022/07/16 05:17:42;;;;;;;8.20;4.35;;;;;;;8.59;100.00;101856.53;5045673;28;20062;-77
2022/07/16 05:20:11;;;;;;;7.28;4.07;;;;;;;8.78;100.00;101862.94;5034572;28;20506;-79
2022/07/16 05:22:37;;;;;;;9.25;4.20;;;;;;;8.74;100.00;101829.38;5044892;28;20564;-79
2022/07/16 05:25:05;;;;;;;9.48;4.70;;;;;;;9.15;100.00;101856.94;5033735;28;20036;-77
2022/07/16 05:27:30;;;;;;;7.55;3.70;;;;;;;9.16;100.00;101834.50;5049307;28;20067;-77
2022/07/16 05:29:56;;;;;;;8.10;4.10;;;;;;;9.38;100.00;101852.16;5043869;28;20079;-77
2022/07/16 05:32:22;;;;;;;6.90;4.05;;;;;;;9.82;100.00;101855.25;5031817;28;20124;-78
2022/07/16 05:34:47;;;;;;;7.72;3.78;;;;;;;10.26;100.00;101840.25;5033425;28;20039;-80
2022/07/16 05:37:13;;;;;;;7.43;4.03;;;;;;;10.55;100.00;101845.53;5016978;28;20029;-78
2022/07/16 05:39:38;;;;;;;6.65;3.70;;;;;;;10.50;100.00;101834.38;5014911;28;20576;-77
2022/07/16 05:42:04;;;;;;;10.15;3.85;;;;;;;10.48;100.00;101846.31;5048542;28;20043;-77
2022/07/16 05:44:30;;;;;;;12.65;3.50;;;;;;;10.57;100.00;101851.63;5029772;28;20028;-78
2022/07/16 05:46:58;;;;;;;10.57;3.90;;;;;;;10.85;100.00;101846.25;5038501;28;20032;-80
2022/07/16 05:49:24;;;;;;;6.93;3.88;;;;;;;11.25;100.00;101838.75;5033075;28;20059;-78
2022/07/16 05:51:49;;;;;;;7.15;3.83;;;;;;;11.86;100.00;101859.50;5025285;28;20055;-78
2022/07/16 05:54:15;;;;;;;7.15;3.90;;;;;;;12.40;100.00;101856.63;5038533;28;20032;-77
2022/07/16 05:56:41;;;;;;;7.25;3.88;;;;;;;12.55;100.00;101860.41;5009993;28;20036;-75
2022/07/16 05:59:07;;;;;;;9.75;4.40;;;;;;;12.93;100.00;101871.66;5044531;28;20068;-75
2022/07/16 06:01:33;;;;;;;8.40;4.20;;;;;;;13.51;100.00;101869.97;5027814;28;20029;-77
2022/07/16 06:03:58;;;;;;;8.32;3.65;;;;;;;13.81;100.00;101871.13;5043856;28;20115;-76
2022/07/16 06:06:26;;;;;;;8.13;3.95;;;;;;;14.54;100.00;101856.63;5040944;28;20059;-76
2022/07/16 06:08:52;;;;;;;8.23;4.15;;;;;;;15.34;100.00;101867.19;5043554;28;20078;-75
2022/07/16 06:11:18;;;;;;;4.97;3.13;;;;;;;15.46;97.77;101875.75;5023762;28;20036;-75
2022/07/16 06:13:43;;;;;;;5.57;3.30;;;;;;;15.66;96.04;101870.69;5044485;28;20482;-76
2022/07/16 06:16:09;;;;;;;4.93;3.20;;;;;;;16.04;95.18;101876.16;5032276;28;20037;-77
2022/07/16 06:18:35;;;;;;;5.68;3.85;;;;;;;16.64;92.71;101874.28;5013932;28;20027;-76
2022/07/16 06:21:02;;;;;;;5.63;3.47;;;;;;;17.38;89.24;101885.00;5038107;28;20074;-76
2022/07/16 06:23:28;;;;;;;5.10;3.38;;;;;;;17.82;87.06;101877.72;5058803;28;20043;-76
2022/07/16 06:25:53;;;;;;;5.25;3.33;;;;;;;17.63;86.09;101871.88;5048641;28;20410;-76
2022/07/16 06:28:19;;;;;;;5.93;3.53;;;;;;;17.32;87.05;101877.63;5040591;28;20112;-76
2022/07/16 06:30:45;;;;;;;7.45;4.00;;;;;;;17.12;88.56;101875.56;5031034;28;20020;-76
2022/07/16 06:33:10;;;;;;;5.28;3.70;;;;;;;17.17;87.42;101876.84;5046961;28;20528;-75
2022/07/16 06:35:42;;;;;;;6.18;3.50;;;;;;;17.38;87.30;101882.28;5038772;28;20035;-77
2022/07/16 06:38:11;;;;;;;6.03;3.28;;;;;;;17.50;86.09;101863.59;5033785;28;20042;-77
2022/07/16 06:40:41;;;;;;;5.78;4.30;;;;;;;17.32;87.23;101872.19;5037584;28;20045;-75
2022/07/16 06:43:07;;;;;;;5.25;3.22;;;;;;;17.56;87.68;101873.69;5037353;28;20040;-75
2022/07/16 06:45:32;;;;;;;6.03;3.63;;;;;;;17.87;85.76;101857.03;5019112;28;20040;-76
2022/07/16 06:47:59;;;;;;;5.07;3.30;;;;;;;18.07;84.62;101872.69;5021125;28;20105;-76
2022/07/16 06:50:24;;;;;;;5.95;4.10;;;;;;;17.88;83.69;101852.44;5062942;28;20036;-76
2022/07/16 06:52:50;;;;;;;6.60;4.30;;;;;;;18.19;82.54;101871.09;5038257;28;20395;-77
2022/07/16 06:55:16;;;;;;;5.78;3.72;;;;;;;18.49;81.34;101877.13;5054164;28;20039;-77
2022/07/16 06:57:42;;;;;;;6.43;3.85;;;;;;;19.09;79.10;101874.72;5036435;28;20029;-77
2022/07/16 07:00:08;;;;;;;6.57;4.00;;;;;;;20.11;76.17;101875.44;5037711;28;20044;-76
2022/07/16 07:02:47;;;;;;;5.25;3.42;;;;;;;20.82;72.21;101885.59;5048113;28;20037;-77
2022/07/16 07:05:13;;;;;;;5.15;3.55;;;;;;;20.80;72.22;101874.06;5033312;28;20036;-76
2022/07/16 07:07:38;;;;;;;5.00;3.50;;;;;;;21.55;69.26;101865.22;5034992;28;20044;-75
2022/07/16 07:10:05;;;;;;;5.43;3.60;;;;;;;22.34;66.23;101878.22;5050914;28;20122;-76
2022/07/16 07:12:46;;;;;;;4.63;3.35;;;;;;;22.69;63.47;101863.09;5040700;28;20106;-77
2022/07/16 07:15:30;;;;;;;4.90;3.28;;;;;;;23.25;63.71;101875.66;5054649;28;20509;-75
2022/07/16 07:17:56;;;;;;;4.68;3.30;;;;;;;24.16;61.66;101881.81;5021659;28;20044;-75
2022/07/16 07:20:21;;;;;;;5.75;3.35;;;;;;;24.61;56.21;101877.59;5020286;28;20445;-77
2022/07/16 07:22:47;;;;;;;4.72;3.70;;;;;;;24.75;58.41;101873.50;5055815;28;20025;-77
2022/07/16 07:25:13;;;;;;;6.45;4.18;;;;;;;25.00;54.87;101873.16;5051953;28;20029;-76
2022/07/16 07:27:39;;;;;;;5.32;3.70;;;;;;;24.60;55.76;101879.50;5041228;28;20151;-76
2022/07/16 07:30:05;;;;;;;7.43;3.70;;;;;;;24.53;55.45;101876.03;5033939;28;20127;-76
2022/07/16 07:32:31;;;;;;;4.80;3.95;;;;;;;24.68;55.37;101864.53;5039657;28;20543;-76
2022/07/16 07:34:56;;;;;;;4.05;3.10;;;;;;;24.94;52.21;101861.22;5018067;28;20033;-76
2022/07/16 07:37:23;;;;;;;4.10;2.72;;;;;;;25.14;51.75;101857.19;5033023;28;20033;-77
2022/07/16 07:39:50;;;;;;;5.28;3.17;;;;;;;25.10;53.00;101858.78;5029612;28;20032;-76
2022/07/16 07:42:15;;;;;;;4.55;3.50;;;;;;;25.50;51.73;101842.16;5032438;28;20119;-76
2022/07/16 07:44:41;;;;;;;5.65;3.78;;;;;;;25.99;51.13;101853.47;5032209;28;20295;-76
2022/07/16 07:47:07;;;;;;;5.15;3.50;;;;;;;26.30;46.57;101854.75;5068231;28;20447;-76
2022/07/16 07:49:33;;;;;;;5.40;4.10;;;;;;;26.52;45.61;101851.19;5035821;28;20037;-76
2022/07/16 07:52:00;;;;;;;5.60;3.90;;;;;;;26.53;47.37;101853.69;5033684;28;20403;-76
2022/07/16 07:54:26;;;;;;;5.38;3.60;;;;;;;26.92;44.84;101856.38;5033034;28;20378;-76
2022/07/16 07:56:52;;;;;;;6.05;4.50;;;;;;;27.10;46.15;101859.88;5032506;28;20105;-77
2022/07/16 07:59:18;;;;;;;7.75;6.20;;;;;;;27.05;46.73;101857.88;5042919;28;20040;-76
2022/07/16 08:01:44;;;;;;;5.80;4.50;;;;;;;27.19;45.87;101852.81;5047535;28;20032;-77
2022/07/16 08:04:09;;;;;;;7.47;4.30;;;;;;;26.70;44.95;101864.66;5066041;28;20463;-75
2022/07/16 08:06:36;;;;;;;6.18;4.00;;;;;;;26.10;46.68;101859.97;5053945;28;20044;-76
2022/07/16 08:09:02;;;;;;;7.82;3.72;;;;;;;25.97;46.92;101857.56;5045776;28;20063;-76
2022/07/16 08:11:28;;;;;;;7.40;3.92;;;;;;;25.46;47.69;101863.03;5025895;28;20115;-75
2022/07/16 08:13:53;;;;;;;5.55;4.00;;;;;;;25.13;48.78;101859.09;5012693;28;20037;-76
2022/07/16 08:16:22;;;;;;;5.85;3.67;;;;;;;24.45;51.22;101862.66;5016801;28;20043;-75
2022/07/16 08:18:51;;;;;;;5.15;3.72;;;;;;;24.16;52.34;101861.72;5034027;28;20036;-78
2022/07/16 08:21:17;;;;;;;6.90;3.80;;;;;;;23.98;53.24;101866.28;5039873;28;20044;-76
2022/07/16 08:26:27;;;;;;;5.63;4.18;;;;;;;24.44;51.25;101863.72;5048308;28;20398;-76
2022/07/16 08:28:53;;;;;;;7.07;4.25;;;;;;;25.19;49.41;101866.44;5061190;28;20028;-79
2022/07/16 08:31:19;;;;;;;7.68;4.35;;;;;;;26.20;47.25;101862.88;5018142;28;20036;-78
2022/07/16 08:33:45;;;;;;;5.30;4.05;;;;;;;27.06;45.58;101855.94;5036874;28;20219;-75
2022/07/16 08:36:10;;;;;;;4.85;4.05;;;;;;;27.16;43.10;101853.31;5014752;28;20025;-77
2022/07/16 08:38:36;;;;;;;5.13;3.88;;;;;;;26.73;45.78;101860.56;5029873;28;20157;-76
2022/07/16 08:41:02;;;;;;;6.45;4.00;;;;;;;27.53;44.53;101856.16;5018189;28;20123;-75
2022/07/16 08:43:29;;;;;;;5.00;3.60;;;;;;;27.91;42.45;101853.44;5032537;28;20032;-76
2022/07/16 08:45:56;;;;;;;5.88;4.00;;;;;;;27.76;44.02;101845.81;5049924;28;20033;-75
2022/07/16 08:48:24;;;;;;;5.18;3.95;;;;;;;28.21;42.54;101850.88;5046819;28;20055;-76
2022/07/16 08:50:52;;;;;;;6.43;4.47;;;;;;;28.57;40.48;101847.47;5036360;28;20508;-74
2022/07/16 08:53:21;;;;;;;4.55;3.63;;;;;;;28.37;40.75;101843.50;5033788;28;20059;-76
2022/07/16 08:55:47;;;;;;;6.13;4.10;;;;;;;28.26;42.25;101847.28;5032769;28;20025;-75
2022/07/16 08:58:12;;;;;;;9.48;4.10;;;;;;;27.67;43.75;101844.66;5009139;28;20029;-81
2022/07/16 09:00:39;;;;;;;5.00;3.60;;;;;;;28.09;43.88;101847.47;5014466;28;20047;-83
2022/07/16 09:03:04;;;;;;;6.53;4.28;;;;;;;28.38;42.54;101861.75;5054143;28;20039;-80
2022/07/16 09:05:30;;;;;;;8.48;4.50;;;;;;;28.38;41.80;101845.16;5034996;28;20074;-80
2022/07/16 09:07:56;;;;;;;7.05;4.10;;;;;;;28.04;42.47;101844.69;5018880;28;20477;-81
2022/07/16 09:10:23;;;;;;;5.53;4.30;;;;;;;27.66;43.54;101846.59;5017390;28;20036;-81
2022/07/16 09:12:49;;;;;;;6.53;4.18;;;;;;;28.28;42.84;101840.38;5031504;28;20398;-81
2022/07/16 09:15:31;;;;;;;5.50;4.38;;;;;;;28.31;42.00;101850.09;5031350;28;20033;-82
2022/07/16 09:18:06;;;;;;;6.22;4.25;;;;;;;28.21;43.19;101859.19;5034694;28;20521;-81
2022/07/16 09:20:32;;;;;;;7.85;4.90;;;;;;;28.43;42.50;101858.19;5036087;28;20044;-84
2022/07/16 09:22:58;;;;;;;6.90;4.63;;;;;;;28.68;42.39;101860.25;5053538;28;20473;-82
2022/07/16 09:25:23;;;;;;;8.38;4.18;;;;;;;28.40;42.51;101859.53;5031476;28;20175;-81
2022/07/16 09:27:59;;;;;;;5.40;4.13;;;;;;;28.32;41.99;101851.75;5033721;28;20063;-80
2022/07/16 09:30:25;;;;;;;5.80;4.18;;;;;;;27.72;42.74;101853.81;5017518;28;20035;-81
2022/07/16 09:32:51;;;;;;;6.95;4.18;;;;;;;27.34;44.10;101844.69;5039588;28;20032;-79
2022/07/16 09:35:18;;;;;;;6.05;3.90;;;;;;;27.43;43.58;101849.72;5057817;28;20127;-84
2022/07/16 09:37:57;;;;;;;7.72;4.43;;;;;;;26.67;46.34;101856.06;5036945;28;20047;-81
2022/07/16 09:40:46;;;;;;;7.05;4.75;;;;;;;27.25;45.53;101842.66;5035191;28;20028;-83
2022/07/16 09:43:12;;;;;;;8.55;4.60;;;;;;;29.31;42.04;101851.84;5036486;28;20029;-80
2022/07/16 09:45:46;;;;;;;6.82;4.57;;;;;;;30.47;39.67;101846.47;5035781;28;20040;-81
2022/07/16 09:48:26;;;;;;;4.78;3.45;;;;;;;30.67;37.88;101851.06;5020051;28;20032;-84
2022/07/16 09:50:54;;;;;;;5.82;3.70;;;;;;;30.23;38.02;101854.59;5014042;28;20411;-76
2022/07/16 09:53:23;;;;;;;6.15;3.83;;;;;;;29.84;38.27;101854.38;5043127;28;20036;-77
2022/07/16 09:56:05;;;;;;;6.68;3.85;;;;;;;29.32;40.02;101847.94;5024728;28;20029;-75
2022/07/16 09:58:31;;;;;;;7.03;4.13;;;;;;;29.20;40.33;101850.19;5033975;28;20044;-75
2022/07/16 10:00:58;;;;;;;6.35;3.88;;;;;;;29.66;40.04;101852.97;5013778;28;20055;-75
2022/07/16 10:03:25;;;;;;;5.90;4.05;;;;;;;29.85;38.50;101844.91;5050497;28;20029;-78
2022/07/16 10:05:50;;;;;;;9.20;4.60;;;;;;;30.15;39.09;101832.94;5048902;28;20478;-76
2022/07/16 10:08:16;;;;;;;7.20;4.38;;;;;;;30.52;37.81;101831.75;5036771;28;20032;-77
2022/07/16 10:10:43;;;;;;;6.32;4.68;;;;;;;30.27;38.29;101830.69;5027616;28;20044;-75
2022/07/16 10:13:10;;;;;;;7.72;4.10;;;;;;;30.26;38.95;101828.22;5038263;28;20483;-77
2022/07/16 10:15:36;;;;;;;6.03;4.25;;;;;;;30.27;39.07;101825.16;5048624;28;20090;-76
2022/07/16 10:18:02;;;;;;;7.30;4.72;;;;;;;29.57;39.80;101822.19;5055124;28;20559;-76
2022/07/16 10:20:34;;;;;;;6.35;4.32;;;;;;;30.72;38.39;101828.84;5047405;28;20020;-75
2022/07/16 10:23:00;;;;;;;7.05;4.13;;;;;;;31.80;36.76;101833.66;5023361;28;20114;-75
2022/07/16 10:25:26;;;;;;;5.78;4.22;;;;;;;32.53;34.89;101829.81;5028316;28;20382;-75
2022/07/16 10:27:53;;;;;;;8.18;4.60;;;;;;;33.10;34.61;101838.22;5049573;28;20040;-75
2022/07/16 10:30:25;;;;;;;7.90;4.40;;;;;;;32.80;34.67;101829.97;5016605;28;20105;-76
2022/07/16 10:33:16;;;;;;;5.97;4.53;;;;;;;33.81;33.13;101828.66;5041527;28;20021;-77
2022/07/16 10:35:45;;;;;;;6.63;4.40;;;;;;;33.91;33.21;101824.84;5025612;28;20260;-75
2022/07/16 10:38:24;;;;;;;6.45;4.60;;;;;;;34.47;31.75;101832.13;5037630;28;20025;-76
2022/07/16 10:41:20;;;;;;;6.93;4.18;;;;;;;34.79;31.07;101836.72;5033988;28;20078;-74
2022/07/16 10:44:09;;;;;;;4.78;4.20;;;;;;;35.16;29.81;101819.97;5014160;28;22792;-76
2022/07/16 10:46:34;;;;;;;5.00;4.10;;;;;;;35.21;30.86;101826.28;5060353;28;20029;-77
2022/07/16 10:49:00;;;;;;;5.60;4.30;;;;;;;35.45;31.79;101833.50;5050757;28;20029;-78
2022/07/16 10:51:26;;;;;;;8.43;4.70;;;;;;;34.42;31.82;101820.22;5064507;28;20035;-77
2022/07/16 10:53:57;;;;;;;6.60;4.13;;;;;;;32.93;33.00;101827.59;5027278;28;20086;-77
2022/07/16 10:56:41;;;;;;;6.90;4.47;;;;;;;32.21;34.24;101825.72;5028131;28;20044;-76
2022/07/16 10:59:08;;;;;;;5.63;4.22;;;;;;;31.25;36.93;101809.66;5014968;28;20482;-81
2022/07/16 11:01:35;;;;;;;5.40;4.20;;;;;;;30.67;37.24;101826.94;5031299;28;20514;-82
2022/07/16 11:04:02;;;;;;;6.97;4.80;;;;;;;30.35;38.65;101820.97;5047819;28;20473;-81
2022/07/16 11:06:28;;;;;;;7.03;4.60;;;;;;;30.24;38.87;101789.66;5057510;28;20020;-83
2022/07/16 11:08:55;;;;;;;9.98;5.20;;;;;;;30.42;38.87;101804.84;5036537;28;20067;-84
2022/07/16 11:11:23;;;;;;;5.70;4.40;;;;;;;30.51;38.52;101793.97;5043892;28;20463;-82
2022/07/16 11:13:52;;;;;;;7.88;4.82;;;;;;;30.31;38.26;101797.69;5037583;28;20028;-83
2022/07/16 11:16:18;;;;;;;6.47;4.45;;;;;;;29.98;38.65;101797.19;5036320;28;20127;-81
2022/07/16 11:18:43;;;;;;;6.85;5.10;;;;;;;29.62;39.74;101780.63;5031857;28;20111;-82
2022/07/16 11:21:10;;;;;;;7.25;5.35;;;;;;;29.42;40.49;101791.72;5038525;28;20031;-82
2022/07/16 11:23:58;;;;;;;9.15;5.03;;;;;;;29.70;39.18;101796.72;5023680;28;20043;-82
2022/07/16 11:26:24;;;;;;;7.97;5.00;;;;;;;29.93;39.58;101770.34;5032878;28;20039;-83
2022/07/16 11:28:55;;;;;;;8.93;5.60;;;;;;;29.58;40.58;101788.69;5041041;28;20119;-82
2022/07/16 11:31:35;;;;;;;6.55;4.80;;;;;;;29.66;42.13;101798.38;5037760;28;20048;-83